Time;durP1;ratioP1;P1;durP2;ratioP2;P2;SDS_P1;SDS_P2;PMS_P1;PMS_P2;Temp;Humidity;BMP_temperature;BMP_pressure;BME280_temperature;BME280_humidity;BME280_pressure;Samples;Min_cycle;Max_cycle;Signal;HPM_P1;HPM_P2
2021/07/27 00:02:28;;;;;;;8.13;4.65;;;;;;;10.25;90.68;90839.47;4956365;28;20031;-87
2021/07/27 00:05:05;;;;;;;6.50;4.45;;;;;;;10.28;91.32;90842.19;4957239;28;20030;-88
2021/07/27 00:07:48;;;;;;;6.50;4.72;;;;;;;10.22;92.65;90832.31;4926075;28;20034;-87
2021/07/27 00:10:22;;;;;;;36.60;4.82;;;;;;;10.32;91.23;90824.06;4956479;28;20113;-87
2021/07/27 00:12:55;;;;;;;;;;;;;;;10.28;91.56;90828.41;4956970;28;20027;-87
2021/07/27 00:15:28;;;;;;;7.18;4.00;;;;;;;10.12;90.27;90823.06;4957109;28;19946;-88
2021/07/27 00:18:07;;;;;;;6.38;3.17;;;;;;;10.10;89.57;90829.69;4941341;28;20102;-87
2021/07/27 00:20:45;;;;;;;10.55;3.40;;;;;;;10.01;89.46;90825.34;4941848;28;20019;-87
2021/07/27 00:23:19;;;;;;;6.60;3.85;;;;;;;9.94;89.92;90822.53;4956493;28;20030;-88
2021/07/27 00:25:58;;;;;;;6.03;3.78;;;;;;;9.86;90.47;90818.22;4940970;28;20483;-87
2021/07/27 00:28:31;;;;;;;5.80;3.97;;;;;;;9.92;90.22;90822.09;4925619;28;20506;-87
2021/07/27 00:31:01;;;;;;;8.18;4.25;;;;;;;9.85;89.93;90815.91;4956264;28;20027;-87
2021/07/27 00:33:36;;;;;;;9.45;3.63;;;;;;;9.90;89.51;90821.69;4940215;28;20380;-87
2021/07/27 00:36:19;;;;;;;3.88;3.05;;;;;;;9.88;89.52;90825.69;4924868;28;20022;-87
2021/07/27 00:39:00;;;;;;;6.85;3.53;;;;;;;9.76;90.08;90829.03;4955744;28;20026;-87
2021/07/27 00:41:39;;;;;;;6.05;3.80;;;;;;;9.63;90.21;90830.09;4956021;28;20019;-87
2021/07/27 00:44:13;;;;;;;6.63;3.88;;;;;;;9.66;90.08;90824.25;4925429;28;20030;-87
2021/07/27 00:46:48;;;;;;;9.25;3.90;;;;;;;9.57;90.23;90822.50;4956981;28;20153;-88
2021/07/27 00:49:21;;;;;;;5.07;3.47;;;;;;;9.61;90.41;90819.25;4940481;28;20026;-87
2021/07/27 00:51:59;;;;;;;5.65;3.45;;;;;;;9.49;89.94;90815.56;4940399;28;20027;-87
2021/07/27 00:54:35;;;;;;;7.95;3.90;;;;;;;9.57;92.05;90822.50;4941072;28;20034;-88
2021/07/27 00:57:16;;;;;;;6.28;3.42;;;;;;;9.67;92.04;90818.72;4940723;28;20034;-87
2021/07/27 00:59:53;;;;;;;27.23;3.58;;;;;;;9.61;92.10;90816.66;4940523;28;20030;-88
2021/07/27 01:02:35;;;;;;;6.45;3.33;;;;;;;9.62;92.28;90813.75;4940507;28;20037;-87
2021/07/27 01:05:10;;;;;;;4.07;3.47;;;;;;;9.54;91.73;90817.97;4940605;28;20534;-87
2021/07/27 01:07:43;;;;;;;10.57;3.17;;;;;;;9.73;90.90;90816.69;4955872;28;20438;-87
2021/07/27 01:10:16;;;;;;;4.60;3.03;;;;;;;9.72;90.88;90822.97;4940091;28;20455;-86
2021/07/27 01:12:56;;;;;;;5.03;3.28;;;;;;;9.63;90.76;90820.47;4940637;28;20023;-87
2021/07/27 01:15:34;;;;;;;46.40;3.55;;;;;;;9.60;89.60;90820.34;4941185;28;20019;-87
2021/07/27 01:18:17;;;;;;;3.72;2.83;;;;;;;9.40;89.85;90832.31;4939599;28;20113;-87
2021/07/27 01:43:36;;;;;;;4.57;4.00;;;;;;;9.24;90.33;90832.19;4962591;28;20561;-87
2021/07/27 01:46:22;;;;;;;5.25;3.42;;;;;;;9.31;89.45;90832.44;4958531;28;20042;-87
2021/07/27 01:48:59;;;;;;;5.60;3.40;;;;;;;9.24;89.63;90840.00;4960074;28;20033;-87
2021/07/27 01:51:46;;;;;;;4.97;3.17;;;;;;;9.29;89.13;90835.38;4959093;28;20031;-87
2021/07/27 01:54:44;;;;;;;5.03;3.50;;;;;;;9.09;89.77;90821.31;4960061;28;20026;-86
2021/07/27 01:57:28;;;;;;;9.85;4.18;;;;;;;9.11;90.28;90828.78;4964653;28;20050;-86
2021/07/27 02:00:05;;;;;;;;;;;;;;;9.08;90.42;90827.59;4975482;28;20022;-87
2021/07/27 02:02:49;;;;;;;5.13;4.00;;;;;;;9.04;90.45;90824.09;4974068;28;20382;-87
2021/07/27 02:05:30;;;;;;;6.30;3.67;;;;;;;9.09;90.16;90828.38;4975726;28;20498;-87
2021/07/27 02:08:07;;;;;;;8.35;3.40;;;;;;;8.98;90.21;90822.81;4959128;28;20509;-87
2021/07/27 02:10:37;;;;;;;4.82;3.28;;;;;;;8.98;90.60;90822.03;4957811;28;20113;-86
2021/07/27 02:13:25;;;;;;;10.18;3.95;;;;;;;8.94;90.99;90819.31;4958538;28;20026;-87
2021/07/27 02:15:58;;;;;;;7.50;4.35;;;;;;;8.96;91.50;90832.00;4963426;28;20556;-87
2021/07/27 02:18:33;;;;;;;6.45;4.45;;;;;;;8.94;90.82;90828.94;4962608;28;20027;-88
2021/07/27 02:21:06;;;;;;;6.07;4.40;;;;;;;8.90;91.33;90826.22;4962323;28;20430;-86
2021/07/27 02:23:43;;;;;;;7.35;4.53;;;;;;;8.99;91.09;90832.13;4962600;28;20018;-87
2021/07/27 02:26:18;;;;;;;7.35;5.03;;;;;;;9.00;91.64;90832.88;4958333;28;20054;-86
2021/07/27 02:28:49;;;;;;;5.32;4.35;;;;;;;8.99;91.48;90826.91;4943284;28;20034;-87
2021/07/27 02:31:42;;;;;;;5.95;4.47;;;;;;;8.96;91.57;90830.16;4942223;28;20089;-86
2021/07/27 02:34:16;;;;;;;5.28;3.97;;;;;;;9.06;91.04;90823.81;4974469;28;20038;-86
2021/07/27 02:36:54;;;;;;;5.60;4.20;;;;;;;9.01;90.15;90829.19;4974265;28;20109;-86
2021/07/27 02:39:38;;;;;;;6.30;3.90;;;;;;;8.89;90.36;90829.91;4958194;28;20549;-86
2021/07/27 02:42:16;;;;;;;8.75;4.60;;;;;;;8.90;91.01;90831.41;4959625;28;20398;-87
2021/07/27 02:44:55;;;;;;;8.88;4.95;;;;;;;8.94;91.33;90832.31;4974150;28;20035;-87
2021/07/27 02:47:28;;;;;;;5.20;4.20;;;;;;;8.88;91.30;90817.25;4959356;28;20026;-87
2021/07/27 02:50:04;;;;;;;7.65;4.85;;;;;;;8.87;90.68;90816.50;4942239;28;20491;-87
2021/07/27 02:52:50;;;;;;;5.20;3.53;;;;;;;8.88;89.58;90818.00;4942003;28;20027;-86
2021/07/27 02:55:20;;;;;;;5.35;3.60;;;;;;;8.85;88.47;90818.63;4943388;28;20106;-87
2021/07/27 02:57:52;;;;;;;5.03;3.97;;;;;;;8.71;88.85;90815.53;4966594;28;20087;-88
2021/07/27 03:00:29;;;;;;;5.82;4.00;;;;;;;8.67;89.63;90812.81;4980014;28;20010;-87
2021/07/27 03:03:04;;;;;;;7.13;4.32;;;;;;;8.57;90.41;90808.75;4996552;28;20030;-86
2021/07/27 03:05:42;;;;;;;7.45;4.07;;;;;;;8.66;90.29;90800.91;4950958;28;20038;-87
2021/07/27 03:08:20;;;;;;;5.63;3.95;;;;;;;8.63;90.17;90806.75;4942649;28;20026;-87
2021/07/27 03:10:59;;;;;;;5.38;3.45;;;;;;;8.60;89.85;90805.53;4957967;28;20041;-87
2021/07/27 03:13:30;;;;;;;7.28;4.35;;;;;;;8.62;89.62;90810.41;4958593;28;20326;-87
2021/07/27 03:16:03;;;;;;;7.05;4.07;;;;;;;8.60;91.13;90797.75;4957577;28;20027;-87
2021/07/27 03:18:42;;;;;;;12.75;4.10;;;;;;;8.64;90.90;90807.50;4957777;28;20487;-86
2021/07/27 03:21:26;;;;;;;12.07;4.45;;;;;;;8.77;91.51;90814.28;4942010;28;20444;-86
2021/07/27 03:24:00;;;;;;;9.30;4.50;;;;;;;8.69;92.09;90810.66;4958161;28;20023;-87
2021/07/27 03:26:39;;;;;;;5.82;4.63;;;;;;;8.69;92.08;90809.91;4960564;28;20112;-86
2021/07/27 03:29:12;;;;;;;6.03;4.18;;;;;;;8.67;92.55;90812.06;4961032;28;20022;-86
2021/07/27 03:31:48;;;;;;;9.70;3.90;;;;;;;8.74;91.20;90813.06;4960037;28;20022;-88
2021/07/27 03:34:28;;;;;;;5.68;3.60;;;;;;;8.77;91.14;90814.28;5008264;23;20050;-87
2021/07/27 03:37:05;;;;;;;4.38;3.42;;;;;;;8.76;90.87;90807.53;4992608;28;20026;-87
2021/07/27 03:39:46;;;;;;;5.85;3.85;;;;;;;8.81;90.86;90807.34;4992442;28;20026;-87
2021/07/27 03:42:24;;;;;;;6.65;3.60;;;;;;;8.70;90.55;90801.78;4977000;28;20037;-87
2021/07/27 03:45:05;;;;;;;5.18;3.47;;;;;;;8.63;90.43;90806.00;4992457;28;20037;-87
2021/07/27 03:47:33;;;;;;;10.88;4.13;;;;;;;8.64;90.21;90804.91;4961705;28;20070;-87
2021/07/27 03:50:15;;;;;;;8.82;5.00;;;;;;;8.58;89.87;90801.72;4993003;28;20037;-87
2021/07/27 03:52:59;;;;;;;4.07;3.25;;;;;;;8.57;89.39;90797.63;4993546;28;20022;-87
2021/07/27 03:55:38;;;;;;;4.80;3.45;;;;;;;8.49;89.74;90795.84;4976158;28;20022;-87
2021/07/27 03:58:19;;;;;;;5.30;3.90;;;;;;;8.51;89.84;90791.09;4991706;28;20041;-87
2021/07/27 04:00:58;;;;;;;5.47;3.30;;;;;;;8.45;89.29;90789.78;4992184;28;20471;-87
2021/07/27 04:03:34;;;;;;;7.40;3.28;;;;;;;8.44;90.06;90789.00;4977480;28;20110;-87
2021/07/27 04:06:17;;;;;;;4.47;2.95;;;;;;;8.49;89.66;90794.00;4960699;28;20034;-87
2021/07/27 04:08:59;;;;;;;7.90;3.63;;;;;;;8.39;89.90;90799.59;4976904;28;20046;-87
2021/07/27 04:11:32;;;;;;;5.93;4.20;;;;;;;8.66;91.95;90794.94;4991624;28;20030;-87
2021/07/27 04:14:07;;;;;;;8.75;4.90;;;;;;;8.63;91.79;90791.16;4976416;28;20023;-87
2021/07/27 04:16:41;;;;;;;8.30;5.20;;;;;;;8.61;92.29;90795.91;4991943;28;20038;-87
2021/07/27 04:19:15;;;;;;;;;;;;;;;8.61;91.64;90794.06;4976826;28;20026;-87
2021/07/27 04:22:00;;;;;;;6.22;4.50;;;;;;;8.64;91.12;90797.09;4991659;28;20368;-87
2021/07/27 04:24:35;;;;;;;6.40;4.38;;;;;;;8.65;90.68;90789.00;4992909;28;20406;-88
2021/07/27 04:27:17;;;;;;;11.27;5.57;;;;;;;8.90;91.62;90792.44;4991687;28;20030;-88
2021/07/27 04:29:54;;;;;;;7.22;5.53;;;;;;;9.02;91.83;90799.53;4976188;28;20521;-86
2021/07/27 04:32:39;;;;;;;7.65;4.63;;;;;;;8.91;91.22;90796.56;4959760;28;20117;-87
2021/07/27 04:35:18;;;;;;;6.90;4.28;;;;;;;8.90;90.46;90800.22;4993143;28;20060;-87
2021/07/27 04:37:56;;;;;;;8.30;4.65;;;;;;;8.92;90.34;90805.88;4975894;28;20022;-87
2021/07/27 04:40:27;;;;;;;5.65;3.90;;;;;;;8.94;90.36;90797.75;4975809;28;20044;-87
2021/07/27 04:43:04;;;;;;;5.30;3.85;;;;;;;8.95;90.13;90791.50;4976462;28;20080;-87
2021/07/27 04:45:41;;;;;;;6.45;4.10;;;;;;;8.99;90.27;90787.16;4977388;28;20026;-88
2021/07/27 04:48:17;;;;;;;6.32;4.50;;;;;;;9.11;91.15;90792.38;5007517;28;20038;-89
2021/07/27 04:50:47;;;;;;;7.55;4.63;;;;;;;9.16;90.76;90788.84;5017010;28;20021;-90
2021/07/27 04:53:28;;;;;;;8.00;5.25;;;;;;;9.28;91.46;90791.47;5000979;28;20019;-89
2021/07/27 04:55:59;;;;;;;6.50;5.07;;;;;;;9.39;91.42;90784.00;4991135;28;20034;-87
2021/07/27 04:58:34;;;;;;;6.53;4.50;;;;;;;9.44;91.28;90776.00;4975464;28;20037;-87
2021/07/27 05:01:09;;;;;;;6.18;4.15;;;;;;;9.55;90.27;90777.84;4991274;28;20097;-87
2021/07/27 05:03:52;;;;;;;5.40;3.92;;;;;;;9.66;90.01;90772.97;4991428;28;20038;-88
2021/07/27 05:06:29;;;;;;;6.20;4.30;;;;;;;9.80;89.95;90770.81;4990376;28;20034;-87
2021/07/27 05:09:05;;;;;;;6.35;4.35;;;;;;;9.99;90.79;90770.25;4992495;28;20030;-87
2021/07/27 05:11:44;;;;;;;7.03;4.90;;;;;;;10.16;91.20;90760.69;4991880;28;20050;-87
2021/07/27 05:14:28;;;;;;;8.35;5.15;;;;;;;10.29;92.82;90757.00;4992133;28;20081;-87
2021/07/27 05:17:11;;;;;;;5.80;4.47;;;;;;;10.46;92.05;90761.97;4997572;28;20006;-87
2021/07/27 05:20:05;;;;;;;5.30;3.92;;;;;;;10.52;90.81;90765.81;4975143;28;20496;-89
2021/07/27 05:22:40;;;;;;;7.57;3.75;;;;;;;10.52;90.44;90755.41;4990780;28;20038;-87
2021/07/27 05:25:21;;;;;;;6.22;3.47;;;;;;;10.56;89.74;90742.47;4990913;28;20109;-87
2021/07/27 05:27:58;;;;;;;6.18;4.75;;;;;;;10.62;90.05;90746.38;4992131;28;20345;-87
2021/07/27 05:30:32;;;;;;;8.68;5.70;;;;;;;10.70;90.98;90750.66;4989773;28;20412;-87
2021/07/27 05:33:32;;;;;;;6.78;4.53;;;;;;;10.77;90.19;90750.09;4976670;28;20149;-88
2021/07/27 05:36:03;;;;;;;;;;;;;;;10.91;92.86;90749.72;4994911;28;20030;-87
2021/07/27 05:38:36;;;;;;;9.25;6.35;;;;;;;10.93;92.22;90745.69;4990655;28;20381;-88
2021/07/27 05:41:03;;;;;;;10.75;6.47;;;;;;;11.15;93.02;90733.19;4961597;28;20399;-87
2021/07/27 05:43:33;;;;;;;11.60;6.18;;;;;;;11.16;92.25;90732.09;4971216;28;20042;-87
2021/07/27 05:46:07;;;;;;;7.85;5.25;;;;;;;11.20;91.82;90725.91;4990988;28;20035;-87
2021/07/27 05:48:42;;;;;;;7.75;4.75;;;;;;;11.24;90.88;90725.97;4992044;28;20468;-88
2021/07/27 05:51:16;;;;;;;8.45;4.70;;;;;;;11.39;90.57;90730.44;4978503;28;20038;-85
2021/07/27 05:53:55;;;;;;;8.90;4.55;;;;;;;11.48;90.34;90736.25;4979144;28;20080;-87
2021/07/27 05:56:33;;;;;;;9.35;6.40;;;;;;;11.70;92.71;90734.91;4994510;28;20030;-89
2021/07/27 05:59:12;;;;;;;12.00;7.22;;;;;;;11.82;92.54;90728.81;4993980;28;20036;-88
2021/07/27 06:01:52;;;;;;;8.48;6.65;;;;;;;11.90;91.32;90740.94;4993368;28;20034;-87
2021/07/27 06:04:30;;;;;;;11.52;6.03;;;;;;;12.09;91.90;90742.13;4994021;28;20117;-88
2021/07/27 06:07:12;;;;;;;8.50;5.72;;;;;;;12.36;92.52;90746.41;4994352;28;20109;-87
2021/07/27 06:09:47;;;;;;;8.55;5.72;;;;;;;12.46;91.94;90733.91;4995731;28;20027;-89
2021/07/27 06:12:23;;;;;;;9.68;6.45;;;;;;;12.63;91.67;90749.19;4993757;28;20109;-87
2021/07/27 06:15:01;;;;;;;8.68;6.55;;;;;;;12.66;91.54;90751.88;4994061;28;20034;-90
2021/07/27 06:17:34;;;;;;;10.38;7.70;;;;;;;12.79;91.94;90744.66;4994185;28;20027;-87
2021/07/27 06:20:17;;;;;;;11.48;6.93;;;;;;;12.89;91.79;90754.53;4978093;28;20030;-90
2021/07/27 06:22:46;;;;;;;10.15;6.90;;;;;;;13.01;91.53;90748.41;4993869;28;20030;-88
2021/07/27 06:25:18;;;;;;;10.50;7.15;;;;;;;13.10;90.87;90750.81;4975704;28;20105;-87
2021/07/27 06:27:52;;;;;;;12.15;7.68;;;;;;;13.33;91.55;90751.63;4974591;28;20062;-89
2021/07/27 06:30:21;;;;;;;9.63;6.82;;;;;;;13.47;89.51;90743.25;4958614;28;20031;-88
2021/07/27 06:32:48;;;;;;;12.30;7.88;;;;;;;13.79;90.19;90743.75;4957818;28;20482;-88
2021/07/27 06:35:14;;;;;;;8.38;6.82;;;;;;;13.84;87.47;90740.09;4958254;28;20058;-88
2021/07/27 06:37:42;;;;;;;11.25;6.68;;;;;;;13.99;89.00;90741.81;4958361;28;20495;-88
2021/07/27 06:40:17;;;;;;;8.82;6.80;;;;;;;14.11;89.73;90746.09;4957903;28;20041;-90
2021/07/27 06:42:44;;;;;;;7.90;6.30;;;;;;;14.23;87.35;90739.91;4959776;28;20535;-88
2021/07/27 06:45:14;;;;;;;8.20;6.43;;;;;;;14.41;87.59;90735.63;4958163;28;20022;-89
2021/07/27 06:47:40;;;;;;;7.72;6.05;;;;;;;14.63;86.35;90741.19;4959699;28;20019;-88
2021/07/27 06:50:08;;;;;;;9.10;6.20;;;;;;;14.81;87.41;90729.06;4973790;28;20390;-88
2021/07/27 06:52:36;;;;;;;8.60;5.68;;;;;;;14.87;86.01;90739.97;4957990;28;20391;-88
2021/07/27 06:55:04;;;;;;;9.20;5.85;;;;;;;15.10;84.46;90739.84;4973811;28;20062;-88
2021/07/27 06:57:38;;;;;;;6.18;4.80;;;;;;;15.24;79.93;90742.63;4942110;28;20387;-87
2021/07/27 07:00:07;;;;;;;;;;;;;;;15.45;81.47;90749.94;4958443;28;20031;-88
2021/07/27 07:02:37;;;;;;;7.82;5.20;;;;;;;15.46;80.56;90756.69;4973535;28;20382;-89
2021/07/27 07:05:04;;;;;;;7.28;5.38;;;;;;;15.70;83.11;90758.84;4960379;28;20026;-87
2021/07/27 07:07:31;;;;;;;8.10;5.85;;;;;;;15.85;81.36;90759.69;4974920;28;20502;-89
2021/07/27 07:09:59;;;;;;;7.05;5.15;;;;;;;16.10;80.28;90765.16;4957301;28;20034;-88
2021/07/27 07:12:31;;;;;;;6.75;4.93;;;;;;;16.15;75.77;90759.56;4973376;28;20047;-88
2021/07/27 07:14:58;;;;;;;6.57;4.97;;;;;;;16.16;75.97;90755.81;4973347;28;20023;-89
2021/07/27 07:17:24;;;;;;;6.85;4.88;;;;;;;16.25;77.47;90766.78;4974598;28;20077;-89
2021/07/27 07:19:51;;;;;;;7.97;4.80;;;;;;;16.24;74.68;90765.25;4956946;28;20121;-89
2021/07/27 07:22:19;;;;;;;7.43;4.72;;;;;;;16.18;75.23;90768.56;4957915;28;20023;-88
2021/07/27 07:24:46;;;;;;;8.02;5.50;;;;;;;16.05;75.06;90767.38;4957951;28;20023;-89
2021/07/27 07:27:12;;;;;;;7.07;4.93;;;;;;;16.14;74.01;90776.44;4977009;28;20049;-90
2021/07/27 07:29:38;;;;;;;8.80;5.00;;;;;;;16.20;73.11;90767.09;4976778;28;20487;-89
2021/07/27 07:32:03;;;;;;;6.90;5.20;;;;;;;16.28;73.32;90769.78;4987092;28;20018;-88
2021/07/27 07:34:30;;;;;;;6.72;5.00;;;;;;;16.34;73.32;90770.94;4995372;28;20041;-89
2021/07/27 07:36:56;;;;;;;8.43;5.35;;;;;;;16.45;75.77;90766.50;5010042;28;20097;-90
2021/07/27 07:39:21;;;;;;;7.38;4.50;;;;;;;16.77;77.03;90758.06;4991909;28;20033;-89
2021/07/27 07:41:51;;;;;;;7.78;4.88;;;;;;;16.78;72.67;90764.81;4991427;28;20574;-87
2021/07/27 07:44:21;;;;;;;7.03;5.22;;;;;;;16.91;71.50;90764.13;4992924;28;20030;-88
2021/07/27 07:46:48;;;;;;;7.75;5.03;;;;;;;16.98;72.04;90770.56;5012396;28;20034;-89
2021/07/27 07:49:14;;;;;;;8.27;4.80;;;;;;;16.94;71.81;90762.63;4978266;28;20021;-90
2021/07/27 07:51:50;;;;;;;6.63;4.50;;;;;;;17.09;70.16;90758.94;4994804;28;20080;-88
2021/07/27 07:54:17;;;;;;;7.78;5.25;;;;;;;17.12;72.18;90768.72;4993461;28;20041;-88
2021/07/27 07:56:45;;;;;;;8.52;5.22;;;;;;;17.24;73.11;90770.25;4988166;28;20030;-87
2021/07/27 07:59:14;;;;;;;8.02;5.18;;;;;;;17.26;71.28;90762.00;5009851;28;20022;-86
2021/07/27 08:01:48;;;;;;;9.35;5.22;;;;;;;17.39;70.56;90769.19;4986085;28;20022;-88
2021/07/27 08:04:14;;;;;;;7.37;4.70;;;;;;;17.32;69.88;90761.28;4995459;28;20026;-88
2021/07/27 08:06:40;;;;;;;7.78;4.88;;;;;;;17.23;69.56;90768.00;4991681;28;20030;-89
2021/07/27 08:09:06;;;;;;;5.78;4.38;;;;;;;17.05;67.31;90752.91;4977972;28;20037;-88
2021/07/27 08:11:32;;;;;;;6.57;4.65;;;;;;;17.09;70.92;90758.94;4991040;28;20026;-86
2021/07/27 08:13:59;;;;;;;7.10;4.45;;;;;;;17.26;69.76;90762.75;4977665;28;20037;-88
2021/07/27 08:21:55;;;;;;;6.07;4.40;;;;;;;17.24;67.33;90764.25;5032282;23;20045;-89
2021/07/27 08:24:21;;;;;;;6.35;4.68;;;;;;;17.24;69.96;90751.81;4994609;28;20041;-88
2021/07/27 08:26:47;;;;;;;7.75;4.10;;;;;;;17.32;68.71;90763.16;4995218;28;20022;-88
2021/07/27 08:29:17;;;;;;;6.93;4.72;;;;;;;17.51;68.56;90757.53;4978516;28;20037;-87
2021/07/27 08:31:47;;;;;;;6.55;4.20;;;;;;;17.55;67.49;90763.56;4978209;28;20018;-86
2021/07/27 08:34:17;;;;;;;7.20;4.55;;;;;;;17.68;67.26;90772.63;5012549;28;20107;-88
2021/07/27 08:36:45;;;;;;;10.23;4.70;;;;;;;17.73;66.22;90762.84;4978994;28;20026;-88
2021/07/27 08:39:15;;;;;;;6.78;4.35;;;;;;;17.88;65.60;90765.16;4978661;28;20030;-86
2021/07/27 08:41:41;;;;;;;6.47;4.13;;;;;;;17.85;63.75;90763.25;4994745;28;20460;-88
2021/07/27 08:44:08;;;;;;;8.02;4.38;;;;;;;17.83;64.38;90756.84;4978108;28;20068;-92
2021/07/27 08:46:40;;;;;;;7.45;4.40;;;;;;;17.94;62.70;90762.88;4977496;28;20036;-88
2021/07/27 08:49:15;;;;;;;5.85;4.28;;;;;;;17.92;64.73;90765.16;4979313;28;20544;-88
2021/07/27 08:51:43;;;;;;;6.25;4.57;;;;;;;18.05;64.20;90763.63;4978823;28;20025;-88
2021/07/27 08:54:15;;;;;;;8.32;4.28;;;;;;;17.97;63.00;90764.78;4962193;28;20129;-87
2021/07/27 08:56:50;;;;;;;5.95;3.90;;;;;;;17.97;62.29;90762.13;4962090;28;20037;-88
2021/07/27 08:59:16;;;;;;;8.02;4.43;;;;;;;18.08;63.26;90757.59;4979656;28;20041;-88
2021/07/27 09:01:43;;;;;;;6.20;3.97;;;;;;;18.06;63.30;90754.63;4994585;28;20040;-88
2021/07/27 09:04:14;;;;;;;7.78;4.53;;;;;;;18.07;63.87;90765.91;4977913;28;20497;-88
2021/07/27 09:06:44;;;;;;;6.85;4.45;;;;;;;18.20;62.37;90761.75;4978315;28;20025;-88
2021/07/27 09:09:10;;;;;;;6.85;4.30;;;;;;;18.20;63.28;90753.84;4992650;28;20068;-86
2021/07/27 09:11:43;;;;;;;6.22;4.03;;;;;;;18.15;64.00;90752.31;4993700;28;20026;-86
2021/07/27 09:14:12;;;;;;;5.57;4.28;;;;;;;18.17;64.13;90751.22;4978212;28;20062;-87
2021/07/27 09:16:51;;;;;;;7.43;3.80;;;;;;;18.30;63.46;90755.72;4978482;28;20068;-87
2021/07/27 09:19:16;;;;;;;5.82;4.20;;;;;;;18.51;65.73;90748.91;4979947;28;20072;-86
2021/07/27 09:21:46;;;;;;;6.05;4.05;;;;;;;18.69;65.06;90756.78;4961760;28;20029;-86
2021/07/27 09:24:20;;;;;;;7.80;4.65;;;;;;;18.84;62.51;90753.00;4977735;28;20394;-85
2021/07/27 09:27:02;;;;;;;6.60;4.40;;;;;;;18.82;59.24;90756.00;4990405;28;20033;-86
2021/07/27 09:29:28;;;;;;;5.85;3.85;;;;;;;19.18;59.45;90749.84;4975362;28;20413;-86
2021/07/27 09:31:55;;;;;;;6.30;4.35;;;;;;;19.44;64.48;90765.19;4995661;28;20034;-89
2021/07/27 09:34:23;;;;;;;5.50;4.30;;;;;;;19.70;62.20;90760.56;4974724;28;20034;-86
2021/07/27 09:37:07;;;;;;;5.95;4.18;;;;;;;19.63;58.03;90756.06;4975208;28;20018;-87
2021/07/27 09:39:33;;;;;;;6.90;3.95;;;;;;;19.53;56.76;90749.66;4974943;28;20035;-87
2021/07/27 09:42:11;;;;;;;8.38;4.32;;;;;;;19.63;60.12;90757.94;4974573;28;20030;-86
2021/07/27 09:44:43;;;;;;;4.70;3.90;;;;;;;19.53;55.65;90757.59;5022911;23;20042;-90
2021/07/27 09:47:10;;;;;;;8.07;4.10;;;;;;;19.29;57.21;90745.25;4991883;28;20018;-88
2021/07/27 09:49:41;;;;;;;7.75;4.18;;;;;;;19.14;58.46;90751.75;4993515;28;20406;-88
2021/07/27 09:52:13;;;;;;;5.60;3.88;;;;;;;18.98;60.02;90750.31;4993295;28;20504;-89
2021/07/27 09:54:39;;;;;;;7.22;4.20;;;;;;;18.93;63.62;90755.97;4990221;28;20026;-88
2021/07/27 09:57:08;;;;;;;8.48;4.70;;;;;;;19.31;65.22;90764.13;4990882;28;20090;-90
2021/07/27 09:59:34;;;;;;;6.35;4.10;;;;;;;19.55;64.76;90763.25;4989987;28;20398;-87
2021/07/27 10:02:08;;;;;;;6.25;4.18;;;;;;;19.85;65.12;90751.38;5003076;23;20074;-90
2021/07/27 10:04:36;;;;;;;6.38;4.30;;;;;;;19.96;62.98;90754.69;4959963;28;20040;-90
2021/07/27 10:07:06;;;;;;;7.15;4.40;;;;;;;20.20;62.09;90760.19;4974572;28;20050;-87
2021/07/27 10:09:33;;;;;;;6.30;3.78;;;;;;;20.32;65.18;90758.94;4974275;28;20375;-89
2021/07/27 10:12:16;;;;;;;8.25;4.15;;;;;;;20.61;63.38;90754.94;4990255;28;20030;-89
2021/07/27 10:14:44;;;;;;;6.45;4.53;;;;;;;20.72;59.85;90752.94;4975118;28;20490;-88
2021/07/27 10:17:11;;;;;;;7.68;4.30;;;;;;;20.73;63.23;90745.75;4958457;28;20062;-89
2021/07/27 10:19:40;;;;;;;5.90;4.00;;;;;;;20.96;55.28;90747.78;4974187;28;20026;-90
2021/07/27 10:22:10;;;;;;;7.75;3.47;;;;;;;21.07;57.63;90739.72;4957928;28;20053;-87
2021/07/27 10:24:44;;;;;;;5.50;3.85;;;;;;;21.03;55.58;90744.31;4959074;28;20023;-89
2021/07/27 10:27:19;;;;;;;6.18;4.35;;;;;;;21.05;55.37;90742.00;4939983;28;20557;-88
2021/07/27 10:29:45;;;;;;;4.78;3.53;;;;;;;21.03;54.03;90742.41;4970576;28;20052;-90
2021/07/27 10:32:17;;;;;;;4.95;3.63;;;;;;;21.08;54.00;90738.56;4970392;28;20495;-89
2021/07/27 10:34:52;;;;;;;5.18;3.40;;;;;;;20.97;49.22;90734.13;4970877;28;20514;-88
2021/07/27 10:37:18;;;;;;;7.35;3.95;;;;;;;21.02;51.70;90735.59;4973155;28;20026;-89
2021/07/27 10:39:58;;;;;;;5.88;3.47;;;;;;;21.25;48.31;90738.34;4957983;28;20027;-88
2021/07/27 10:42:27;;;;;;;4.70;3.78;;;;;;;21.38;52.25;90741.25;4974074;28;20113;-88
2021/07/27 10:44:54;;;;;;;7.15;3.63;;;;;;;21.47;52.40;90749.44;4974271;28;20034;-89
2021/07/27 10:47:30;;;;;;;5.65;4.40;;;;;;;21.77;56.20;90744.50;4974164;28;20114;-89
2021/07/27 10:50:06;;;;;;;4.70;3.88;;;;;;;22.06;55.91;90750.91;4967585;28;20031;-89
2021/07/27 10:52:33;;;;;;;4.93;3.47;;;;;;;21.64;48.53;90741.66;4942650;28;20026;-89
2021/07/27 10:55:00;;;;;;;8.32;4.20;;;;;;;21.69;53.36;90749.16;4958333;28;20030;-89
2021/07/27 10:57:43;;;;;;;6.22;3.92;;;;;;;21.83;51.37;90748.22;4942387;28;20058;-88
2021/07/27 11:00:15;;;;;;;5.90;4.00;;;;;;;22.10;51.09;90740.25;4942376;28;20027;-89
2021/07/27 11:02:41;;;;;;;5.43;3.97;;;;;;;21.99;48.07;90737.75;4942169;28;20491;-90
2021/07/27 11:05:09;;;;;;;5.68;3.63;;;;;;;21.92;48.50;90735.94;4957709;28;20038;-90
2021/07/27 11:07:38;;;;;;;6.70;4.07;;;;;;;21.66;48.70;90726.88;4957724;28;20442;-89
2021/07/27 11:10:06;;;;;;;5.53;3.47;;;;;;;21.62;50.01;90728.03;4941695;28;20558;-89
2021/07/27 11:12:38;;;;;;;7.38;3.95;;;;;;;21.35;49.14;90730.69;4973502;28;20093;-89
2021/07/27 11:15:23;;;;;;;5.93;3.60;;;;;;;21.69;48.19;90727.94;4957915;28;20061;-88
2021/07/27 11:18:04;;;;;;;4.57;3.33;;;;;;;21.62;49.69;90736.00;4957491;28;20023;-89
2021/07/27 11:20:40;;;;;;;5.68;4.20;;;;;;;21.54;49.33;90734.59;4958898;28;20022;-89
2021/07/27 11:23:16;;;;;;;6.63;4.10;;;;;;;21.31;52.13;90725.41;4957423;28;20050;-89
2021/07/27 11:25:42;;;;;;;5.47;3.45;;;;;;;21.29;50.46;90726.94;4962407;28;20047;-88
2021/07/27 11:28:13;;;;;;;6.53;4.05;;;;;;;21.51;49.57;90740.69;4957219;28;20038;-89
2021/07/27 11:30:44;;;;;;;6.20;3.70;;;;;;;21.56;49.85;90730.41;4972735;28;20039;-87
2021/07/27 11:33:14;;;;;;;4.47;3.53;;;;;;;21.74;48.04;90734.72;4957280;28;20435;-88
2021/07/27 11:35:44;;;;;;;4.75;3.58;;;;;;;21.91;48.51;90729.16;4974906;28;20062;-87
2021/07/27 11:38:10;;;;;;;5.47;3.65;;;;;;;21.79;49.72;90721.75;4989675;28;20023;-88
2021/07/27 11:40:35;;;;;;;5.30;3.80;;;;;;;22.08;50.43;90723.97;4973194;28;20068;-89
2021/07/27 11:43:05;;;;;;;7.55;3.78;;;;;;;22.06;47.04;90718.31;4989242;28;20023;-89
2021/07/27 11:45:45;;;;;;;5.68;3.83;;;;;;;22.26;45.67;90721.03;4957510;28;20487;-89
2021/07/27 11:48:15;;;;;;;6.60;3.85;;;;;;;22.41;46.22;90717.75;4956418;28;20391;-90
2021/07/27 11:50:41;;;;;;;7.40;4.40;;;;;;;22.06;44.75;90719.06;4988712;28;20105;-89
2021/07/27 11:53:11;;;;;;;6.53;4.32;;;;;;;22.08;48.50;90716.75;4957562;28;20026;-88
2021/07/27 11:55:40;;;;;;;6.55;4.10;;;;;;;22.26;47.38;90715.75;4989022;28;20093;-89
2021/07/27 11:58:08;;;;;;;6.60;3.90;;;;;;;22.51;47.27;90699.38;4972973;28;20031;-90
2021/07/27 12:00:37;;;;;;;8.15;3.92;;;;;;;22.60;45.06;90696.97;4988576;28;20035;-91
2021/07/27 12:03:06;;;;;;;6.75;4.60;;;;;;;22.62;47.97;90690.09;4972882;28;20506;-88
2021/07/27 12:05:31;;;;;;;7.82;4.72;;;;;;;22.73;50.26;90705.81;4973185;28;20237;-89
2021/07/27 12:07:57;;;;;;;7.43;4.72;;;;;;;22.90;53.31;90704.75;4972787;28;20085;-89
2021/07/27 12:10:24;;;;;;;5.90;4.40;;;;;;;22.42;51.06;90708.63;4972877;28;20033;-89
2021/07/27 12:12:49;;;;;;;6.85;4.18;;;;;;;22.76;48.70;90704.28;4972737;28;20057;-88
2021/07/27 12:15:17;;;;;;;7.18;4.78;;;;;;;22.73;52.58;90711.13;4972658;28;20027;-89
2021/07/27 12:17:42;;;;;;;6.05;4.35;;;;;;;22.32;50.44;90693.63;4988007;28;20023;-90
2021/07/27 12:20:10;;;;;;;7.43;4.65;;;;;;;22.24;49.61;90692.28;4956254;28;20073;-89
2021/07/27 12:22:35;;;;;;;5.18;4.10;;;;;;;22.54;53.86;90695.91;4956965;28;20042;-87
2021/07/27 12:25:02;;;;;;;6.45;4.68;;;;;;;21.81;52.37;90692.94;4991726;28;20030;-90
2021/07/27 12:27:29;;;;;;;5.75;4.50;;;;;;;21.68;52.58;90694.63;4992111;28;20387;-87
2021/07/27 12:29:54;;;;;;;6.25;4.70;;;;;;;21.39;53.91;90697.69;4975285;28;20064;-86
2021/07/27 12:32:20;;;;;;;6.40;4.45;;;;;;;21.40;53.04;90696.53;4975857;28;20109;-86
2021/07/27 12:34:45;;;;;;;8.18;4.43;;;;;;;21.25;55.10;90695.19;4975569;28;20553;-87